sensor_id;sensor_type;location;lat;lon;timestamp;P1;durP1;ratioP1;P2;durP2;ratioP2
40256;SDS011;25977;45.462;9.210;2023-03-14T00:01:32;16.33;;;11.45;;
40256;SDS011;25977;45.462;9.210;2023-03-14T00:03:57;18.10;;;11.25;;
40256;SDS011;25977;45.462;9.210;2023-03-14T00:06:24;22.52;;;12.10;;
40256;SDS011;25977;45.462;9.210;2023-03-14T00:08:50;22.27;;;11.63;;
40256;SDS011;25977;45.462;9.210;2023-03-14T00:11:20;16.58;;;11.18;;
40256;SDS011;25977;45.462;9.210;2023-03-14T00:13:50;18.92;;;12.63;;
40256;SDS011;25977;45.462;9.210;2023-03-14T00:16:16;18.52;;;11.23;;
40256;SDS011;25977;45.462;9.210;2023-03-14T00:18:42;19.23;;;11.35;;
40256;SDS011;25977;45.462;9.210;2023-03-14T00:21:08;17.48;;;11.60;;
40256;SDS011;25977;45.462;9.210;2023-03-14T00:23:36;16.27;;;11.50;;
40256;SDS011;25977;45.462;9.210;2023-03-14T00:28:39;18.98;;;11.07;;
40256;SDS011;25977;45.462;9.210;2023-03-14T00:31:06;16.95;;;11.77;;
40256;SDS011;25977;45.462;9.210;2023-03-14T00:33:33;17.05;;;11.32;;
40256;SDS011;25977;45.462;9.210;2023-03-14T00:36:00;36.10;;;11.85;;
40256;SDS011;25977;45.462;9.210;2023-03-14T00:38:29;16.88;;;11.30;;
40256;SDS011;25977;45.462;9.210;2023-03-14T00:40:56;19.20;;;11.30;;
40256;SDS011;25977;45.462;9.210;2023-03-14T00:43:22;16.48;;;10.27;;
40256;SDS011;25977;45.462;9.210;2023-03-14T00:45:48;18.85;;;11.57;;
40256;SDS011;25977;45.462;9.210;2023-03-14T00:48:15;18.73;;;10.80;;
40256;SDS011;25977;45.462;9.210;2023-03-14T00:50:42;15.40;;;10.68;;
40256;SDS011;25977;45.462;9.210;2023-03-14T00:53:07;13.27;;;10.00;;
40256;SDS011;25977;45.462;9.210;2023-03-14T00:55:36;14.80;;;9.75;;
40256;SDS011;25977;45.462;9.210;2023-03-14T00:58:02;18.10;;;10.82;;
40256;SDS011;25977;45.462;9.210;2023-03-14T01:00:28;12.38;;;9.50;;
40256;SDS011;25977;45.462;9.210;2023-03-14T01:02:54;17.25;;;11.10;;
40256;SDS011;25977;45.462;9.210;2023-03-14T01:05:21;15.07;;;10.15;;
40256;SDS011;25977;45.462;9.210;2023-03-14T01:07:47;17.77;;;9.73;;
40256;SDS011;25977;45.462;9.210;2023-03-14T01:10:13;16.38;;;10.27;;
40256;SDS011;25977;45.462;9.210;2023-03-14T01:12:39;13.57;;;10.50;;
40256;SDS011;25977;45.462;9.210;2023-03-14T01:15:05;16.33;;;11.18;;
40256;SDS011;25977;45.462;9.210;2023-03-14T01:17:31;13.00;;;9.80;;
40256;SDS011;25977;45.462;9.210;2023-03-14T01:19:57;10.80;;;8.70;;
40256;SDS011;25977;45.462;9.210;2023-03-14T01:22:24;15.02;;;8.88;;
40256;SDS011;25977;45.462;9.210;2023-03-14T01:24:49;12.43;;;9.50;;
40256;SDS011;25977;45.462;9.210;2023-03-14T01:27:15;14.75;;;10.40;;
40256;SDS011;25977;45.462;9.210;2023-03-14T01:29:41;16.33;;;10.85;;
40256;SDS011;25977;45.462;9.210;2023-03-14T01:32:07;12.27;;;9.77;;
40256;SDS011;25977;45.462;9.210;2023-03-14T01:34:33;16.58;;;10.23;;
40256;SDS011;25977;45.462;9.210;2023-03-14T01:36:58;12.40;;;9.10;;
40256;SDS011;25977;45.462;9.210;2023-03-14T01:39:24;17.02;;;9.23;;
40256;SDS011;25977;45.462;9.210;2023-03-14T01:41:50;15.07;;;9.88;;
40256;SDS011;25977;45.462;9.210;2023-03-14T01:44:16;18.23;;;10.07;;
40256;SDS011;25977;45.462;9.210;2023-03-14T01:46:43;12.80;;;9.38;;
40256;SDS011;25977;45.462;9.210;2023-03-14T01:52:25;15.45;;;10.05;;
40256;SDS011;25977;45.462;9.210;2023-03-14T01:55:09;18.70;;;10.32;;
40256;SDS011;25977;45.462;9.210;2023-03-14T01:57:44;16.88;;;9.50;;
40256;SDS011;25977;45.462;9.210;2023-03-14T02:00:15;14.27;;;11.10;;
40256;SDS011;25977;45.462;9.210;2023-03-14T02:02:46;16.10;;;9.98;;
40256;SDS011;25977;45.462;9.210;2023-03-14T02:05:19;16.45;;;10.35;;
40256;SDS011;25977;45.462;9.210;2023-03-14T02:07:59;16.10;;;10.77;;
40256;SDS011;25977;45.462;9.210;2023-03-14T02:10:31;16.75;;;9.82;;
40256;SDS011;25977;45.462;9.210;2023-03-14T02:13:02;14.77;;;10.20;;
40256;SDS011;25977;45.462;9.210;2023-03-14T02:15:59;14.57;;;9.65;;
40256;SDS011;25977;45.462;9.210;2023-03-14T02:18:50;15.40;;;10.82;;
40256;SDS011;25977;45.462;9.210;2023-03-14T02:21:41;16.25;;;10.93;;
40256;SDS011;25977;45.462;9.210;2023-03-14T02:30:01;24.73;;;11.32;;
40256;SDS011;25977;45.462;9.210;2023-03-14T02:32:33;19.00;;;10.68;;
40256;SDS011;25977;45.462;9.210;2023-03-14T02:35:02;16.42;;;10.13;;
40256;SDS011;25977;45.462;9.210;2023-03-14T02:37:36;13.68;;;10.10;;
40256;SDS011;25977;45.462;9.210;2023-03-14T02:40:07;13.43;;;9.65;;
40256;SDS011;25977;45.462;9.210;2023-03-14T02:42:34;15.77;;;9.75;;
40256;SDS011;25977;45.462;9.210;2023-03-14T02:47:34;16.55;;;10.02;;
40256;SDS011;25977;45.462;9.210;2023-03-14T02:50:09;13.23;;;8.68;;
40256;SDS011;25977;45.462;9.210;2023-03-14T02:52:38;13.88;;;10.02;;
40256;SDS011;25977;45.462;9.210;2023-03-14T02:55:04;16.90;;;10.15;;
40256;SDS011;25977;45.462;9.210;2023-03-14T02:57:31;16.27;;;10.43;;
40256;SDS011;25977;45.462;9.210;2023-03-14T03:00:00;21.20;;;11.07;;
40256;SDS011;25977;45.462;9.210;2023-03-14T03:02:33;17.05;;;10.60;;
40256;SDS011;25977;45.462;9.210;2023-03-14T03:04:58;14.45;;;10.02;;
40256;SDS011;25977;45.462;9.210;2023-03-14T03:07:24;14.55;;;9.48;;
40256;SDS011;25977;45.462;9.210;2023-03-14T03:09:52;14.95;;;9.82;;
40256;SDS011;25977;45.462;9.210;2023-03-14T03:12:18;15.55;;;9.57;;
40256;SDS011;25977;45.462;9.210;2023-03-14T03:14:44;15.80;;;10.00;;
40256;SDS011;25977;45.462;9.210;2023-03-14T03:17:10;12.00;;;9.65;;
40256;SDS011;25977;45.462;9.210;2023-03-14T03:19:38;14.25;;;9.77;;
40256;SDS011;25977;45.462;9.210;2023-03-14T03:22:03;15.25;;;10.20;;
40256;SDS011;25977;45.462;9.210;2023-03-14T03:24:29;17.13;;;10.13;;
40256;SDS011;25977;45.462;9.210;2023-03-14T03:26:55;12.68;;;8.88;;
40256;SDS011;25977;45.462;9.210;2023-03-14T03:29:20;14.40;;;9.38;;
40256;SDS011;25977;45.462;9.210;2023-03-14T03:31:46;20.73;;;11.25;;
40256;SDS011;25977;45.462;9.210;2023-03-14T03:34:12;12.65;;;9.30;;
40256;SDS011;25977;45.462;9.210;2023-03-14T03:36:40;12.35;;;8.77;;
40256;SDS011;25977;45.462;9.210;2023-03-14T03:39:06;18.33;;;10.38;;
40256;SDS011;25977;45.462;9.210;2023-03-14T03:41:32;13.60;;;10.23;;
40256;SDS011;25977;45.462;9.210;2023-03-14T03:43:59;10.93;;;8.95;;
40256;SDS011;25977;45.462;9.210;2023-03-14T03:46:25;11.75;;;8.63;;
40256;SDS011;25977;45.462;9.210;2023-03-14T03:48:55;17.63;;;10.82;;
40256;SDS011;25977;45.462;9.210;2023-03-14T03:51:21;15.73;;;9.90;;
40256;SDS011;25977;45.462;9.210;2023-03-14T03:53:47;16.55;;;9.82;;
40256;SDS011;25977;45.462;9.210;2023-03-14T03:56:17;12.77;;;9.52;;
40256;SDS011;25977;45.462;9.210;2023-03-14T03:58:43;15.13;;;9.35;;
40256;SDS011;25977;45.462;9.210;2023-03-14T04:01:09;14.70;;;9.57;;
40256;SDS011;25977;45.462;9.210;2023-03-14T04:03:38;16.95;;;10.55;;
40256;SDS011;25977;45.462;9.210;2023-03-14T04:06:06;17.17;;;10.35;;
40256;SDS011;25977;45.462;9.210;2023-03-14T04:08:36;19.73;;;10.60;;
40256;SDS011;25977;45.462;9.210;2023-03-14T04:11:03;12.18;;;8.80;;
40256;SDS011;25977;45.462;9.210;2023-03-14T04:13:52;14.88;;;9.80;;
40256;SDS011;25977;45.462;9.210;2023-03-14T04:16:19;14.57;;;10.23;;
40256;SDS011;25977;45.462;9.210;2023-03-14T04:18:48;13.40;;;10.35;;
40256;SDS011;25977;45.462;9.210;2023-03-14T04:21:18;15.13;;;9.73;;
40256;SDS011;25977;45.462;9.210;2023-03-14T04:23:47;17.30;;;10.93;;
40256;SDS011;25977;45.462;9.210;2023-03-14T04:26:14;15.05;;;10.27;;
40256;SDS011;25977;45.462;9.210;2023-03-14T04:28:40;16.52;;;10.35;;
40256;SDS011;25977;45.462;9.210;2023-03-14T04:31:11;18.13;;;11.68;;
40256;SDS011;25977;45.462;9.210;2023-03-14T04:33:41;16.00;;;10.32;;
40256;SDS011;25977;45.462;9.210;2023-03-14T04:36:08;16.85;;;11.35;;
40256;SDS011;25977;45.462;9.210;2023-03-14T04:38:34;13.98;;;10.45;;
40256;SDS011;25977;45.462;9.210;2023-03-14T04:41:00;16.33;;;10.88;;
40256;SDS011;25977;45.462;9.210;2023-03-14T04:43:30;19.25;;;11.07;;
40256;SDS011;25977;45.462;9.210;2023-03-14T04:46:02;13.30;;;9.68;;
40256;SDS011;25977;45.462;9.210;2023-03-14T04:48:28;13.65;;;10.73;;
40256;SDS011;25977;45.462;9.210;2023-03-14T04:50:54;20.13;;;11.02;;
40256;SDS011;25977;45.462;9.210;2023-03-14T04:53:20;19.08;;;10.60;;
40256;SDS011;25977;45.462;9.210;2023-03-14T04:55:52;18.33;;;11.13;;
40256;SDS011;25977;45.462;9.210;2023-03-14T04:58:22;13.48;;;10.55;;
40256;SDS011;25977;45.462;9.210;2023-03-14T05:00:49;20.50;;;10.00;;
40256;SDS011;25977;45.462;9.210;2023-03-14T05:03:37;13.95;;;9.90;;
40256;SDS011;25977;45.462;9.210;2023-03-14T05:06:23;15.23;;;10.35;;
40256;SDS011;25977;45.462;9.210;2023-03-14T05:09:24;16.40;;;10.40;;
40256;SDS011;25977;45.462;9.210;2023-03-14T05:12:10;12.05;;;9.70;;
40256;SDS011;25977;45.462;9.210;2023-03-14T05:14:53;12.88;;;10.27;;
40256;SDS011;25977;45.462;9.210;2023-03-14T05:17:38;23.08;;;11.73;;
40256;SDS011;25977;45.462;9.210;2023-03-14T05:20:22;15.45;;;10.48;;
40256;SDS011;25977;45.462;9.210;2023-03-14T05:22:58;17.50;;;9.82;;
40256;SDS011;25977;45.462;9.210;2023-03-14T05:25:42;12.60;;;9.80;;
40256;SDS011;25977;45.462;9.210;2023-03-14T05:28:18;16.27;;;10.07;;
40256;SDS011;25977;45.462;9.210;2023-03-14T05:30:57;17.80;;;10.80;;
40256;SDS011;25977;45.462;9.210;2023-03-14T05:33:43;13.55;;;9.65;;
40256;SDS011;25977;45.462;9.210;2023-03-14T05:36:27;11.60;;;9.35;;
40256;SDS011;25977;45.462;9.210;2023-03-14T05:39:13;13.10;;;9.57;;
40256;SDS011;25977;45.462;9.210;2023-03-14T05:41:52;14.20;;;10.15;;
40256;SDS011;25977;45.462;9.210;2023-03-14T05:47:45;15.68;;;9.85;;
40256;SDS011;25977;45.462;9.210;2023-03-14T05:50:37;18.35;;;10.02;;
40256;SDS011;25977;45.462;9.210;2023-03-14T05:53:32;18.02;;;11.50;;
40256;SDS011;25977;45.462;9.210;2023-03-14T05:56:33;17.50;;;11.57;;
40256;SDS011;25977;45.462;9.210;2023-03-14T05:59:08;16.10;;;12.07;;
40256;SDS011;25977;45.462;9.210;2023-03-14T06:01:55;15.95;;;11.27;;
40256;SDS011;25977;45.462;9.210;2023-03-14T06:04:23;21.90;;;10.55;;
40256;SDS011;25977;45.462;9.210;2023-03-14T06:06:54;18.73;;;10.20;;
40256;SDS011;25977;45.462;9.210;2023-03-14T06:09:20;27.80;;;9.98;;
40256;SDS011;25977;45.462;9.210;2023-03-14T06:11:48;23.63;;;9.93;;
40256;SDS011;25977;45.462;9.210;2023-03-14T06:14:15;28.98;;;9.93;;
40256;SDS011;25977;45.462;9.210;2023-03-14T06:16:45;16.08;;;10.45;;
40256;SDS011;25977;45.462;9.210;2023-03-14T06:19:13;12.30;;;9.40;;
40256;SDS011;25977;45.462;9.210;2023-03-14T06:21:40;17.58;;;10.45;;
40256;SDS011;25977;45.462;9.210;2023-03-14T06:24:06;17.63;;;11.00;;
40256;SDS011;25977;45.462;9.210;2023-03-14T06:26:38;14.18;;;9.75;;
40256;SDS011;25977;45.462;9.210;2023-03-14T06:29:03;11.45;;;9.10;;
40256;SDS011;25977;45.462;9.210;2023-03-14T06:31:32;16.27;;;10.98;;
40256;SDS011;25977;45.462;9.210;2023-03-14T06:34:01;16.40;;;9.57;;
40256;SDS011;25977;45.462;9.210;2023-03-14T06:36:29;15.50;;;10.82;;
40256;SDS011;25977;45.462;9.210;2023-03-14T06:38:56;15.45;;;10.82;;
40256;SDS011;25977;45.462;9.210;2023-03-14T06:41:23;12.90;;;10.82;;
40256;SDS011;25977;45.462;9.210;2023-03-14T06:43:51;17.73;;;12.05;;
40256;SDS011;25977;45.462;9.210;2023-03-14T06:46:17;14.90;;;10.88;;
40256;SDS011;25977;45.462;9.210;2023-03-14T06:48:43;16.42;;;11.82;;
40256;SDS011;25977;45.462;9.210;2023-03-14T06:51:10;20.17;;;12.95;;
40256;SDS011;25977;45.462;9.210;2023-03-14T06:53:35;23.73;;;13.48;;
40256;SDS011;25977;45.462;9.210;2023-03-14T06:56:02;15.40;;;10.98;;
40256;SDS011;25977;45.462;9.210;2023-03-14T06:58:30;24.65;;;12.45;;
40256;SDS011;25977;45.462;9.210;2023-03-14T07:00:56;20.08;;;11.63;;
40256;SDS011;25977;45.462;9.210;2023-03-14T07:03:27;15.82;;;11.65;;
40256;SDS011;25977;45.462;9.210;2023-03-14T07:05:54;15.40;;;11.60;;
40256;SDS011;25977;45.462;9.210;2023-03-14T07:08:20;16.40;;;12.38;;
40256;SDS011;25977;45.462;9.210;2023-03-14T07:10:46;19.02;;;12.50;;
40256;SDS011;25977;45.462;9.210;2023-03-14T07:13:11;14.98;;;11.68;;
40256;SDS011;25977;45.462;9.210;2023-03-14T07:15:56;17.75;;;12.63;;
40256;SDS011;25977;45.462;9.210;2023-03-14T07:18:22;13.70;;;10.68;;
40256;SDS011;25977;45.462;9.210;2023-03-14T07:20:48;16.17;;;11.43;;
40256;SDS011;25977;45.462;9.210;2023-03-14T07:23:14;21.98;;;11.32;;
40256;SDS011;25977;45.462;9.210;2023-03-14T07:25:45;20.63;;;11.63;;
40256;SDS011;25977;45.462;9.210;2023-03-14T07:28:12;13.02;;;10.07;;
40256;SDS011;25977;45.462;9.210;2023-03-14T07:30:40;19.08;;;11.55;;
40256;SDS011;25977;45.462;9.210;2023-03-14T07:33:13;15.50;;;11.57;;
40256;SDS011;25977;45.462;9.210;2023-03-14T07:35:39;19.55;;;11.80;;
40256;SDS011;25977;45.462;9.210;2023-03-14T07:38:05;14.38;;;10.70;;
40256;SDS011;25977;45.462;9.210;2023-03-14T07:40:36;16.80;;;10.98;;
40256;SDS011;25977;45.462;9.210;2023-03-14T07:43:03;21.15;;;12.80;;
40256;SDS011;25977;45.462;9.210;2023-03-14T07:45:40;17.50;;;12.05;;
40256;SDS011;25977;45.462;9.210;2023-03-14T07:48:05;17.42;;;12.68;;
40256;SDS011;25977;45.462;9.210;2023-03-14T07:50:31;18.02;;;12.63;;
40256;SDS011;25977;45.462;9.210;2023-03-14T07:52:57;19.63;;;12.35;;
40256;SDS011;25977;45.462;9.210;2023-03-14T07:55:22;18.58;;;12.65;;
40256;SDS011;25977;45.462;9.210;2023-03-14T07:57:49;17.80;;;13.40;;
40256;SDS011;25977;45.462;9.210;2023-03-14T08:00:15;16.33;;;10.95;;
40256;SDS011;25977;45.462;9.210;2023-03-14T08:02:40;17.00;;;12.30;;
40256;SDS011;25977;45.462;9.210;2023-03-14T08:05:07;14.32;;;11.25;;
40256;SDS011;25977;45.462;9.210;2023-03-14T08:07:33;22.10;;;12.63;;
40256;SDS011;25977;45.462;9.210;2023-03-14T08:09:59;18.42;;;11.48;;
40256;SDS011;25977;45.462;9.210;2023-03-14T08:12:24;20.10;;;11.63;;
40256;SDS011;25977;45.462;9.210;2023-03-14T08:14:50;16.20;;;11.38;;
40256;SDS011;25977;45.462;9.210;2023-03-14T08:17:15;18.02;;;11.60;;
40256;SDS011;25977;45.462;9.210;2023-03-14T08:19:41;16.25;;;12.32;;
40256;SDS011;25977;45.462;9.210;2023-03-14T08:22:07;16.17;;;12.55;;
40256;SDS011;25977;45.462;9.210;2023-03-14T08:24:32;17.95;;;12.80;;
40256;SDS011;25977;45.462;9.210;2023-03-14T08:26:58;18.00;;;12.85;;
40256;SDS011;25977;45.462;9.210;2023-03-14T08:29:24;21.08;;;13.50;;
40256;SDS011;25977;45.462;9.210;2023-03-14T08:31:50;19.40;;;13.07;;
40256;SDS011;25977;45.462;9.210;2023-03-14T08:34:16;20.85;;;13.45;;
40256;SDS011;25977;45.462;9.210;2023-03-14T08:36:43;21.73;;;14.70;;
40256;SDS011;25977;45.462;9.210;2023-03-14T08:39:08;18.33;;;12.88;;
40256;SDS011;25977;45.462;9.210;2023-03-14T08:41:34;16.90;;;12.02;;
40256;SDS011;25977;45.462;9.210;2023-03-14T08:44:05;18.73;;;13.60;;
40256;SDS011;25977;45.462;9.210;2023-03-14T08:46:34;21.42;;;14.65;;
40256;SDS011;25977;45.462;9.210;2023-03-14T08:49:00;22.25;;;14.20;;
40256;SDS011;25977;45.462;9.210;2023-03-14T08:51:26;18.20;;;12.82;;
40256;SDS011;25977;45.462;9.210;2023-03-14T08:53:51;21.30;;;13.77;;
40256;SDS011;25977;45.462;9.210;2023-03-14T08:56:17;18.77;;;12.82;;
40256;SDS011;25977;45.462;9.210;2023-03-14T08:58:43;18.38;;;12.35;;
40256;SDS011;25977;45.462;9.210;2023-03-14T09:01:09;18.98;;;12.63;;
40256;SDS011;25977;45.462;9.210;2023-03-14T09:03:35;19.60;;;12.50;;
40256;SDS011;25977;45.462;9.210;2023-03-14T09:06:06;19.13;;;11.93;;
40256;SDS011;25977;45.462;9.210;2023-03-14T09:08:34;15.80;;;11.73;;
40256;SDS011;25977;45.462;9.210;2023-03-14T09:11:00;13.85;;;11.23;;
40256;SDS011;25977;45.462;9.210;2023-03-14T09:13:26;17.02;;;11.75;;
40256;SDS011;25977;45.462;9.210;2023-03-14T09:15:55;16.27;;;11.15;;
40256;SDS011;25977;45.462;9.210;2023-03-14T09:18:22;15.30;;;11.38;;
40256;SDS011;25977;45.462;9.210;2023-03-14T09:20:51;12.23;;;9.63;;
40256;SDS011;25977;45.462;9.210;2023-03-14T09:23:17;15.52;;;10.18;;
40256;SDS011;25977;45.462;9.210;2023-03-14T09:25:42;17.95;;;12.45;;
40256;SDS011;25977;45.462;9.210;2023-03-14T09:28:08;15.07;;;10.38;;
40256;SDS011;25977;45.462;9.210;2023-03-14T09:30:34;26.92;;;12.30;;
40256;SDS011;25977;45.462;9.210;2023-03-14T09:32:59;19.25;;;12.77;;
40256;SDS011;25977;45.462;9.210;2023-03-14T09:35:25;20.42;;;12.40;;
40256;SDS011;25977;45.462;9.210;2023-03-14T09:37:51;30.35;;;16.40;;
40256;SDS011;25977;45.462;9.210;2023-03-14T09:40:17;31.05;;;18.25;;
40256;SDS011;25977;45.462;9.210;2023-03-14T09:42:45;22.08;;;15.52;;
40256;SDS011;25977;45.462;9.210;2023-03-14T09:47:52;26.35;;;16.45;;
40256;SDS011;25977;45.462;9.210;2023-03-14T09:50:19;23.40;;;14.05;;
40256;SDS011;25977;45.462;9.210;2023-03-14T09:52:48;23.63;;;14.82;;
40256;SDS011;25977;45.462;9.210;2023-03-14T09:55:18;24.08;;;15.15;;
40256;SDS011;25977;45.462;9.210;2023-03-14T09:57:46;24.63;;;14.80;;
40256;SDS011;25977;45.462;9.210;2023-03-14T10:00:21;25.90;;;15.40;;
40256;SDS011;25977;45.462;9.210;2023-03-14T10:02:59;23.27;;;14.77;;
40256;SDS011;25977;45.462;9.210;2023-03-14T10:05:38;21.65;;;13.60;;
40256;SDS011;25977;45.462;9.210;2023-03-14T10:08:05;22.73;;;14.40;;
40256;SDS011;25977;45.462;9.210;2023-03-14T10:10:31;23.67;;;14.60;;
40256;SDS011;25977;45.462;9.210;2023-03-14T10:12:58;20.70;;;12.57;;
40256;SDS011;25977;45.462;9.210;2023-03-14T10:15:33;25.13;;;14.20;;
40256;SDS011;25977;45.462;9.210;2023-03-14T10:18:00;92.32;;;49.80;;
40256;SDS011;25977;45.462;9.210;2023-03-14T10:20:32;26.58;;;16.10;;
40256;SDS011;25977;45.462;9.210;2023-03-14T14:49:51;17.42;;;10.77;;
40256;SDS011;25977;45.462;9.210;2023-03-14T14:52:20;45.08;;;11.27;;
40256;SDS011;25977;45.462;9.210;2023-03-14T14:54:59;13.75;;;9.52;;
40256;SDS011;25977;45.462;9.210;2023-03-14T14:57:36;16.48;;;10.57;;
40256;SDS011;25977;45.462;9.210;2023-03-14T15:00:06;13.15;;;9.60;;
40256;SDS011;25977;45.462;9.210;2023-03-14T15:02:38;15.93;;;8.98;;
40256;SDS011;25977;45.462;9.210;2023-03-14T15:07:45;15.90;;;10.55;;
40256;SDS011;25977;45.462;9.210;2023-03-14T15:10:12;11.98;;;9.68;;
40256;SDS011;25977;45.462;9.210;2023-03-14T15:12:40;15.35;;;10.48;;
40256;SDS011;25977;45.462;9.210;2023-03-14T15:15:06;13.02;;;9.75;;
40256;SDS011;25977;45.462;9.210;2023-03-14T15:17:32;14.20;;;9.43;;
40256;SDS011;25977;45.462;9.210;2023-03-14T15:19:58;11.25;;;9.85;;
40256;SDS011;25977;45.462;9.210;2023-03-14T15:22:24;15.73;;;10.52;;
40256;SDS011;25977;45.462;9.210;2023-03-14T15:24:49;17.95;;;10.25;;
40256;SDS011;25977;45.462;9.210;2023-03-14T15:27:16;17.15;;;11.30;;
40256;SDS011;25977;45.462;9.210;2023-03-14T15:29:43;14.93;;;10.20;;
40256;SDS011;25977;45.462;9.210;2023-03-14T15:32:10;13.43;;;10.18;;
40256;SDS011;25977;45.462;9.210;2023-03-14T15:34:37;12.85;;;10.07;;
40256;SDS011;25977;45.462;9.210;2023-03-14T15:37:03;11.38;;;9.85;;
40256;SDS011;25977;45.462;9.210;2023-03-14T15:39:32;13.20;;;10.63;;
40256;SDS011;25977;45.462;9.210;2023-03-14T15:41:59;12.77;;;10.55;;
40256;SDS011;25977;45.462;9.210;2023-03-14T15:44:25;12.50;;;9.10;;
40256;SDS011;25977;45.462;9.210;2023-03-14T15:46:51;13.52;;;9.75;;
40256;SDS011;25977;45.462;9.210;2023-03-14T15:49:16;13.25;;;9.95;;
40256;SDS011;25977;45.462;9.210;2023-03-14T15:51:42;13.32;;;10.57;;
40256;SDS011;25977;45.462;9.210;2023-03-14T15:54:08;14.43;;;9.98;;
40256;SDS011;25977;45.462;9.210;2023-03-14T15:56:33;13.02;;;10.07;;
40256;SDS011;25977;45.462;9.210;2023-03-14T15:58:59;12.60;;;10.38;;
40256;SDS011;25977;45.462;9.210;2023-03-14T16:01:25;13.63;;;10.50;;
40256;SDS011;25977;45.462;9.210;2023-03-14T16:03:51;17.30;;;11.60;;
40256;SDS011;25977;45.462;9.210;2023-03-14T16:06:18;11.57;;;10.00;;
40256;SDS011;25977;45.462;9.210;2023-03-14T16:08:44;14.57;;;11.80;;
40256;SDS011;25977;45.462;9.210;2023-03-14T16:11:10;14.82;;;11.05;;
40256;SDS011;25977;45.462;9.210;2023-03-14T16:13:37;17.83;;;12.90;;
40256;SDS011;25977;45.462;9.210;2023-03-14T16:16:04;14.23;;;10.63;;
40256;SDS011;25977;45.462;9.210;2023-03-14T16:18:31;20.65;;;12.55;;
40256;SDS011;25977;45.462;9.210;2023-03-14T16:20:59;18.05;;;12.95;;
40256;SDS011;25977;45.462;9.210;2023-03-14T16:23:27;20.27;;;12.30;;
40256;SDS011;25977;45.462;9.210;2023-03-14T16:25:54;22.75;;;12.98;;
40256;SDS011;25977;45.462;9.210;2023-03-14T16:28:20;18.38;;;11.45;;
40256;SDS011;25977;45.462;9.210;2023-03-14T16:30:47;18.17;;;11.75;;
40256;SDS011;25977;45.462;9.210;2023-03-14T16:33:13;20.88;;;13.05;;
40256;SDS011;25977;45.462;9.210;2023-03-14T16:35:40;20.83;;;12.95;;
40256;SDS011;25977;45.462;9.210;2023-03-14T16:38:05;20.98;;;14.40;;
40256;SDS011;25977;45.462;9.210;2023-03-14T16:40:31;20.90;;;13.25;;
40256;SDS011;25977;45.462;9.210;2023-03-14T16:42:57;19.75;;;13.57;;
40256;SDS011;25977;45.462;9.210;2023-03-14T16:45:23;20.95;;;13.68;;
40256;SDS011;25977;45.462;9.210;2023-03-14T16:47:48;17.42;;;11.80;;
40256;SDS011;25977;45.462;9.210;2023-03-14T16:50:14;15.15;;;10.63;;
40256;SDS011;25977;45.462;9.210;2023-03-14T16:52:40;13.73;;;10.73;;
40256;SDS011;25977;45.462;9.210;2023-03-14T16:55:06;14.45;;;10.88;;
40256;SDS011;25977;45.462;9.210;2023-03-14T16:57:32;11.27;;;9.75;;
40256;SDS011;25977;45.462;9.210;2023-03-14T16:59:58;12.35;;;10.45;;
40256;SDS011;25977;45.462;9.210;2023-03-14T17:02:24;14.85;;;10.48;;
40256;SDS011;25977;45.462;9.210;2023-03-14T17:04:49;14.10;;;10.52;;
40256;SDS011;25977;45.462;9.210;2023-03-14T17:07:15;13.90;;;10.05;;
40256;SDS011;25977;45.462;9.210;2023-03-14T17:09:42;13.15;;;9.43;;
40256;SDS011;25977;45.462;9.210;2023-03-14T17:12:07;17.10;;;10.13;;
40256;SDS011;25977;45.462;9.210;2023-03-14T17:14:33;13.25;;;9.40;;
40256;SDS011;25977;45.462;9.210;2023-03-14T17:16:59;12.52;;;8.95;;
40256;SDS011;25977;45.462;9.210;2023-03-14T17:19:24;12.82;;;9.48;;
40256;SDS011;25977;45.462;9.210;2023-03-14T17:21:50;12.60;;;9.52;;
40256;SDS011;25977;45.462;9.210;2023-03-14T17:24:16;10.90;;;8.90;;
40256;SDS011;25977;45.462;9.210;2023-03-14T17:26:43;13.95;;;9.73;;
40256;SDS011;25977;45.462;9.210;2023-03-14T17:29:08;12.18;;;8.82;;
40256;SDS011;25977;45.462;9.210;2023-03-14T17:31:34;16.65;;;9.43;;
40256;SDS011;25977;45.462;9.210;2023-03-14T17:34:00;11.65;;;8.93;;
40256;SDS011;25977;45.462;9.210;2023-03-14T17:36:25;13.77;;;8.50;;
40256;SDS011;25977;45.462;9.210;2023-03-14T17:38:54;12.30;;;7.60;;
40256;SDS011;25977;45.462;9.210;2023-03-14T17:41:20;11.77;;;8.27;;
40256;SDS011;25977;45.462;9.210;2023-03-14T17:43:46;11.27;;;7.68;;
40256;SDS011;25977;45.462;9.210;2023-03-14T17:46:11;9.88;;;8.13;;
40256;SDS011;25977;45.462;9.210;2023-03-14T17:48:42;8.73;;;6.97;;
40256;SDS011;25977;45.462;9.210;2023-03-14T17:51:09;8.18;;;7.03;;
40256;SDS011;25977;45.462;9.210;2023-03-14T17:53:35;10.40;;;7.85;;
40256;SDS011;25977;45.462;9.210;2023-03-14T17:56:01;11.63;;;7.05;;
40256;SDS011;25977;45.462;9.210;2023-03-14T17:58:27;8.88;;;7.20;;
40256;SDS011;25977;45.462;9.210;2023-03-14T18:00:54;10.07;;;7.03;;
40256;SDS011;25977;45.462;9.210;2023-03-14T18:03:21;7.22;;;6.03;;
40256;SDS011;25977;45.462;9.210;2023-03-14T18:05:46;8.60;;;7.32;;
40256;SDS011;25977;45.462;9.210;2023-03-14T18:08:12;10.20;;;7.15;;
40256;SDS011;25977;45.462;9.210;2023-03-14T18:10:39;7.70;;;6.80;;
40256;SDS011;25977;45.462;9.210;2023-03-14T18:13:06;7.55;;;6.75;;
40256;SDS011;25977;45.462;9.210;2023-03-14T18:15:31;15.90;;;6.93;;
40256;SDS011;25977;45.462;9.210;2023-03-14T18:17:58;8.02;;;6.35;;
40256;SDS011;25977;45.462;9.210;2023-03-14T18:20:26;7.85;;;6.57;;
40256;SDS011;25977;45.462;9.210;2023-03-14T18:22:52;6.63;;;5.88;;
40256;SDS011;25977;45.462;9.210;2023-03-14T18:25:19;6.15;;;5.57;;
40256;SDS011;25977;45.462;9.210;2023-03-14T18:27:44;7.93;;;5.47;;
40256;SDS011;25977;45.462;9.210;2023-03-14T18:30:10;6.45;;;5.35;;
40256;SDS011;25977;45.462;9.210;2023-03-14T18:32:36;9.98;;;5.75;;
40256;SDS011;25977;45.462;9.210;2023-03-14T18:35:02;7.90;;;5.45;;
40256;SDS011;25977;45.462;9.210;2023-03-14T18:37:28;7.45;;;4.70;;
40256;SDS011;25977;45.462;9.210;2023-03-14T18:39:53;5.32;;;4.80;;
40256;SDS011;25977;45.462;9.210;2023-03-14T18:42:19;5.00;;;4.60;;
40256;SDS011;25977;45.462;9.210;2023-03-14T18:44:45;5.93;;;5.07;;
40256;SDS011;25977;45.462;9.210;2023-03-14T18:47:10;6.55;;;4.63;;
40256;SDS011;25977;45.462;9.210;2023-03-14T18:49:36;5.30;;;4.80;;
40256;SDS011;25977;45.462;9.210;2023-03-14T18:52:02;5.03;;;4.05;;
40256;SDS011;25977;45.462;9.210;2023-03-14T18:54:28;5.10;;;4.35;;
40256;SDS011;25977;45.462;9.210;2023-03-14T18:56:54;5.85;;;4.47;;
40256;SDS011;25977;45.462;9.210;2023-03-14T18:59:19;5.20;;;4.70;;
40256;SDS011;25977;45.462;9.210;2023-03-14T19:01:45;4.20;;;3.85;;
40256;SDS011;25977;45.462;9.210;2023-03-14T19:04:11;6.03;;;4.68;;
40256;SDS011;25977;45.462;9.210;2023-03-14T19:06:36;6.05;;;3.97;;
40256;SDS011;25977;45.462;9.210;2023-03-14T19:09:02;5.03;;;4.63;;
40256;SDS011;25977;45.462;9.210;2023-03-14T19:11:32;5.75;;;4.30;;
40256;SDS011;25977;45.462;9.210;2023-03-14T19:13:58;4.57;;;4.18;;
40256;SDS011;25977;45.462;9.210;2023-03-14T19:16:24;4.35;;;3.95;;
40256;SDS011;25977;45.462;9.210;2023-03-14T19:18:50;4.90;;;3.80;;
40256;SDS011;25977;45.462;9.210;2023-03-14T19:21:30;4.60;;;4.20;;
40256;SDS011;25977;45.462;9.210;2023-03-14T19:23:57;4.75;;;4.28;;
40256;SDS011;25977;45.462;9.210;2023-03-14T19:26:23;7.65;;;4.38;;